sensor_id;sensor_type;location;lat;lon;timestamp;pressure;altitude;pressure_sealevel;temperature;humidity
12213;BME280;6169;44.158;22.788;2022-11-11T00:00:38;102185.06;;;16.15;64.76
12213;BME280;6169;44.158;22.788;2022-11-11T00:05:40;102184.06;;;16.58;62.90
12213;BME280;6169;44.158;22.788;2022-11-11T00:10:42;102169.78;;;16.37;63.56
12213;BME280;6169;44.158;22.788;2022-11-11T00:15:46;102175.31;;;16.49;62.75
12213;BME280;6169;44.158;22.788;2022-11-11T00:20:49;102172.25;;;16.57;61.92
12213;BME280;6169;44.158;22.788;2022-11-11T00:26:10;102184.28;;;16.26;62.91
12213;BME280;6169;44.158;22.788;2022-11-11T00:31:14;102199.63;;;16.46;61.49
12213;BME280;6169;44.158;22.788;2022-11-11T00:36:17;102195.47;;;15.95;63.18
12213;BME280;6169;44.158;22.788;2022-11-11T00:41:22;102191.81;;;16.31;61.98
12213;BME280;6169;44.158;22.788;2022-11-11T00:46:26;102173.47;;;16.31;61.61
12213;BME280;6169;44.158;22.788;2022-11-11T00:51:46;102172.97;;;16.23;61.37
12213;BME280;6169;44.158;22.788;2022-11-11T00:56:48;102167.72;;;16.21;61.27
12213;BME280;6169;44.158;22.788;2022-11-11T01:01:52;102157.88;;;16.62;59.43
12213;BME280;6169;44.158;22.788;2022-11-11T01:06:54;102158.88;;;15.89;61.93
12213;BME280;6169;44.158;22.788;2022-11-11T01:11:56;102155.59;;;15.62;62.82
12213;BME280;6169;44.158;22.788;2022-11-11T01:17:00;102161.69;;;16.01;61.08
12213;BME280;6169;44.158;22.788;2022-11-11T01:22:04;102165.66;;;15.86;61.34
12213;BME280;6169;44.158;22.788;2022-11-11T01:27:06;102163.66;;;15.38;62.14
12213;BME280;6169;44.158;22.788;2022-11-11T01:32:10;102167.03;;;15.77;61.29
12213;BME280;6169;44.158;22.788;2022-11-11T01:37:12;102169.91;;;15.64;61.44
12213;BME280;6169;44.158;22.788;2022-11-11T01:42:14;102171.81;;;15.63;61.27
12213;BME280;6169;44.158;22.788;2022-11-11T01:47:18;102181.78;;;15.76;60.38
12213;BME280;6169;44.158;22.788;2022-11-11T01:52:24;102179.09;;;15.51;61.24
12213;BME280;6169;44.158;22.788;2022-11-11T01:57:30;102191.56;;;15.47;61.51
12213;BME280;6169;44.158;22.788;2022-11-11T02:02:37;102200.56;;;15.91;59.84
12213;BME280;6169;44.158;22.788;2022-11-11T02:07:40;102205.25;;;15.47;61.16
12213;BME280;6169;44.158;22.788;2022-11-11T02:12:43;102207.06;;;15.53;61.32
12213;BME280;6169;44.158;22.788;2022-11-11T02:18:05;102193.59;;;15.33;62.56
12213;BME280;6169;44.158;22.788;2022-11-11T02:23:10;102213.13;;;15.37;61.64
12213;BME280;6169;44.158;22.788;2022-11-11T02:28:17;102219.06;;;15.34;61.81
12213;BME280;6169;44.158;22.788;2022-11-11T02:33:20;102212.25;;;15.61;60.41
12213;BME280;6169;44.158;22.788;2022-11-11T02:38:23;102222.69;;;15.27;62.12
12213;BME280;6169;44.158;22.788;2022-11-11T02:43:27;102232.47;;;15.17;62.79
12213;BME280;6169;44.158;22.788;2022-11-11T02:48:29;102231.19;;;15.19;62.24
12213;BME280;6169;44.158;22.788;2022-11-11T02:53:32;102227.13;;;15.03;63.57
12213;BME280;6169;44.158;22.788;2022-11-11T02:58:35;102230.34;;;15.19;62.26
12213;BME280;6169;44.158;22.788;2022-11-11T03:03:37;102239.63;;;15.18;62.11
12213;BME280;6169;44.158;22.788;2022-11-11T03:08:39;102245.69;;;15.20;62.45
12213;BME280;6169;44.158;22.788;2022-11-11T03:13:43;102248.28;;;15.15;62.18
12213;BME280;6169;44.158;22.788;2022-11-11T03:18:45;102239.44;;;15.38;61.21
12213;BME280;6169;44.158;22.788;2022-11-11T03:23:47;102248.66;;;14.93;63.04
12213;BME280;6169;44.158;22.788;2022-11-11T03:28:51;102256.19;;;14.98;62.80
12213;BME280;6169;44.158;22.788;2022-11-11T03:33:53;102257.91;;;15.42;60.93
12213;BME280;6169;44.158;22.788;2022-11-11T03:38:56;102257.22;;;15.03;62.44
12213;BME280;6169;44.158;22.788;2022-11-11T03:43:59;102256.06;;;15.11;61.56
12213;BME280;6169;44.158;22.788;2022-11-11T03:49:01;102269.00;;;14.97;61.19
12213;BME280;6169;44.158;22.788;2022-11-11T03:54:03;102278.50;;;15.20;60.99
12213;BME280;6169;44.158;22.788;2022-11-11T03:59:07;102273.72;;;15.15;60.23
12213;BME280;6169;44.158;22.788;2022-11-11T04:04:09;102280.66;;;14.86;61.07
12213;BME280;6169;44.158;22.788;2022-11-11T04:09:29;102278.50;;;15.20;59.72
12213;BME280;6169;44.158;22.788;2022-11-11T04:14:49;102280.28;;;14.83;61.06
12213;BME280;6169;44.158;22.788;2022-11-11T04:20:10;102294.56;;;14.85;60.79
12213;BME280;6169;44.158;22.788;2022-11-11T04:25:29;102290.84;;;14.66;61.18
12213;BME280;6169;44.158;22.788;2022-11-11T04:30:51;102308.19;;;14.46;61.52
12213;BME280;6169;44.158;22.788;2022-11-11T04:35:53;102312.50;;;14.22;62.90
12213;BME280;6169;44.158;22.788;2022-11-11T04:40:55;102304.50;;;14.21;62.38
12213;BME280;6169;44.158;22.788;2022-11-11T04:46:10;102308.34;;;14.58;60.83
12213;BME280;6169;44.158;22.788;2022-11-11T04:51:12;102329.34;;;14.64;59.78
12213;BME280;6169;44.158;22.788;2022-11-11T04:56:14;102336.66;;;14.77;59.10
12213;BME280;6169;44.158;22.788;2022-11-11T05:01:35;102343.09;;;14.89;58.48
12213;BME280;6169;44.158;22.788;2022-11-11T05:06:54;102340.59;;;14.88;57.35
12213;BME280;6169;44.158;22.788;2022-11-11T05:12:14;102346.31;;;14.79;58.12
12213;BME280;6169;44.158;22.788;2022-11-11T05:17:17;102352.78;;;14.40;59.93
12213;BME280;6169;44.158;22.788;2022-11-11T05:22:36;102348.00;;;14.15;60.50
12213;BME280;6169;44.158;22.788;2022-11-11T05:27:39;102347.63;;;13.99;60.33
12213;BME280;6169;44.158;22.788;2022-11-11T05:32:43;102359.63;;;13.84;60.79
12213;BME280;6169;44.158;22.788;2022-11-11T05:37:45;102361.31;;;13.79;60.81
12213;BME280;6169;44.158;22.788;2022-11-11T05:43:09;102366.13;;;13.97;59.71
12213;BME280;6169;44.158;22.788;2022-11-11T05:48:13;102385.19;;;14.23;59.01
12213;BME280;6169;44.158;22.788;2022-11-11T05:53:15;102378.41;;;14.39;58.28
12213;BME280;6169;44.158;22.788;2022-11-11T05:58:23;102390.00;;;14.28;59.19
12213;BME280;6169;44.158;22.788;2022-11-11T06:03:27;102397.19;;;13.96;60.36
12213;BME280;6169;44.158;22.788;2022-11-11T06:08:29;102395.94;;;14.05;60.66
12213;BME280;6169;44.158;22.788;2022-11-11T06:13:31;102404.41;;;14.62;58.70
12213;BME280;6169;44.158;22.788;2022-11-11T06:18:35;102414.28;;;14.63;59.13
12213;BME280;6169;44.158;22.788;2022-11-11T06:23:37;102412.31;;;14.90;57.67
12213;BME280;6169;44.158;22.788;2022-11-11T06:28:40;102420.72;;;14.88;58.03
12213;BME280;6169;44.158;22.788;2022-11-11T06:33:44;102428.63;;;15.03;57.44
12213;BME280;6169;44.158;22.788;2022-11-11T06:38:47;102431.41;;;14.96;57.02
12213;BME280;6169;44.158;22.788;2022-11-11T06:43:49;102439.06;;;15.26;55.65
12213;BME280;6169;44.158;22.788;2022-11-11T06:48:53;102443.66;;;15.25;55.65
12213;BME280;6169;44.158;22.788;2022-11-11T06:53:55;102443.28;;;15.54;54.64
12213;BME280;6169;44.158;22.788;2022-11-11T06:58:57;102437.84;;;15.09;56.36
12213;BME280;6169;44.158;22.788;2022-11-11T07:04:01;102446.50;;;15.76;53.98
12213;BME280;6169;44.158;22.788;2022-11-11T07:09:03;102446.56;;;16.19;52.52
12213;BME280;6169;44.158;22.788;2022-11-11T07:14:05;102447.91;;;16.10;52.23
12213;BME280;6169;44.158;22.788;2022-11-11T07:19:09;102460.66;;;16.41;51.74
12213;BME280;6169;44.158;22.788;2022-11-11T07:24:11;102473.53;;;16.41;50.78
12213;BME280;6169;44.158;22.788;2022-11-11T07:29:13;102467.06;;;17.09;49.32
12213;BME280;6169;44.158;22.788;2022-11-11T07:34:17;102470.47;;;16.74;49.43
12213;BME280;6169;44.158;22.788;2022-11-11T07:39:20;102464.97;;;16.92;49.75
12213;BME280;6169;44.158;22.788;2022-11-11T07:44:22;102476.78;;;16.74;49.38
12213;BME280;6169;44.158;22.788;2022-11-11T07:49:25;102475.41;;;17.02;48.54
12213;BME280;6169;44.158;22.788;2022-11-11T07:54:28;102476.69;;;16.63;49.20
12213;BME280;6169;44.158;22.788;2022-11-11T07:59:30;102483.00;;;17.00;48.45
12213;BME280;6169;44.158;22.788;2022-11-11T08:04:34;102482.94;;;16.88;48.05
12213;BME280;6169;44.158;22.788;2022-11-11T08:09:36;102478.94;;;17.81;46.05
12213;BME280;6169;44.158;22.788;2022-11-11T08:14:38;102485.09;;;17.35;46.51
12213;BME280;6169;44.158;22.788;2022-11-11T08:19:41;102488.84;;;17.82;45.10
12213;BME280;6169;44.158;22.788;2022-11-11T08:24:44;102492.69;;;17.51;46.00
12213;BME280;6169;44.158;22.788;2022-11-11T08:29:46;102499.84;;;17.82;45.27
12213;BME280;6169;44.158;22.788;2022-11-11T08:34:49;102491.03;;;18.04;44.27
12213;BME280;6169;44.158;22.788;2022-11-11T08:39:52;102495.72;;;18.27;44.17
12213;BME280;6169;44.158;22.788;2022-11-11T08:44:54;102499.16;;;18.69;43.03
12213;BME280;6169;44.158;22.788;2022-11-11T08:49:58;102496.94;;;18.19;44.32
12213;BME280;6169;44.158;22.788;2022-11-11T08:55:00;102511.00;;;18.58;43.43
12213;BME280;6169;44.158;22.788;2022-11-11T09:00:03;102513.19;;;18.56;43.11
12213;BME280;6169;44.158;22.788;2022-11-11T09:05:07;102511.75;;;18.18;43.53
12213;BME280;6169;44.158;22.788;2022-11-11T09:10:10;102521.19;;;18.57;42.49
12213;BME280;6169;44.158;22.788;2022-11-11T09:15:13;102513.50;;;19.07;41.32
12213;BME280;6169;44.158;22.788;2022-11-11T09:20:16;102506.84;;;18.44;41.96
12213;BME280;6169;44.158;22.788;2022-11-11T09:25:20;102502.78;;;18.23;42.98
12213;BME280;6169;44.158;22.788;2022-11-11T09:30:23;102502.78;;;18.46;41.68
12213;BME280;6169;44.158;22.788;2022-11-11T09:35:27;102486.28;;;18.34;41.98
12213;BME280;6169;44.158;22.788;2022-11-11T09:40:37;102486.16;;;18.41;41.27
12213;BME280;6169;44.158;22.788;2022-11-11T09:45:52;102505.75;;;18.68;41.40
12213;BME280;6169;44.158;22.788;2022-11-11T09:51:02;102477.06;;;18.64;41.10
12213;BME280;6169;44.158;22.788;2022-11-11T09:56:08;102471.00;;;18.50;41.58
12213;BME280;6169;44.158;22.788;2022-11-11T10:01:15;102469.09;;;19.03;40.58
12213;BME280;6169;44.158;22.788;2022-11-11T10:06:22;102476.94;;;18.71;40.71
12213;BME280;6169;44.158;22.788;2022-11-11T10:11:34;102482.28;;;18.77;40.45
12213;BME280;6169;44.158;22.788;2022-11-11T10:16:49;102472.94;;;18.90;40.38
12213;BME280;6169;44.158;22.788;2022-11-11T10:21:59;102487.56;;;18.79;40.19
12213;BME280;6169;44.158;22.788;2022-11-11T10:27:06;102472.38;;;19.17;39.59
12213;BME280;6169;44.158;22.788;2022-11-11T10:32:17;102469.09;;;18.91;39.48
12213;BME280;6169;44.158;22.788;2022-11-11T10:37:26;102467.59;;;18.95;39.53
12213;BME280;6169;44.158;22.788;2022-11-11T10:42:29;102477.66;;;18.66;40.46
12213;BME280;6169;44.158;22.788;2022-11-11T10:47:41;102478.25;;;18.68;40.19
12213;BME280;6169;44.158;22.788;2022-11-11T10:52:49;102474.44;;;18.46;40.64
12213;BME280;6169;44.158;22.788;2022-11-11T10:57:59;102464.06;;;18.36;40.41
12213;BME280;6169;44.158;22.788;2022-11-11T11:03:09;102460.28;;;18.89;39.84
12213;BME280;6169;44.158;22.788;2022-11-11T11:08:18;102462.91;;;18.84;40.03
12213;BME280;6169;44.158;22.788;2022-11-11T11:13:26;102453.38;;;19.61;38.50
12213;BME280;6169;44.158;22.788;2022-11-11T11:18:31;102466.50;;;19.25;39.01
12213;BME280;6169;44.158;22.788;2022-11-11T11:23:40;102467.75;;;19.05;39.11
12213;BME280;6169;44.158;22.788;2022-11-11T11:28:53;102464.94;;;19.00;38.75
12213;BME280;6169;44.158;22.788;2022-11-11T11:33:56;102461.00;;;18.85;39.08
12213;BME280;6169;44.158;22.788;2022-11-11T11:39:00;102457.53;;;18.77;39.28
12213;BME280;6169;44.158;22.788;2022-11-11T11:44:02;102454.94;;;18.71;39.58
12213;BME280;6169;44.158;22.788;2022-11-11T11:49:16;102451.34;;;19.11;38.58
12213;BME280;6169;44.158;22.788;2022-11-11T11:54:35;102456.75;;;19.05;38.67
12213;BME280;6169;44.158;22.788;2022-11-11T11:59:42;102445.41;;;19.02;38.96
12213;BME280;6169;44.158;22.788;2022-11-11T12:05:00;102433.41;;;18.68;39.55
12213;BME280;6169;44.158;22.788;2022-11-11T12:10:19;102451.78;;;19.19;38.59
12213;BME280;6169;44.158;22.788;2022-11-11T12:15:32;102275.88;;;18.03;39.13
12213;BME280;6169;44.158;22.788;2022-11-11T12:20:40;102419.09;;;19.06;39.11
12213;BME280;6169;44.158;22.788;2022-11-11T12:25:55;102421.63;;;19.24;38.57
12213;BME280;6169;44.158;22.788;2022-11-11T12:36:31;102427.47;;;19.45;38.83
12213;BME280;6169;44.158;22.788;2022-11-11T12:41:47;102410.84;;;19.85;37.74
12213;BME280;6169;44.158;22.788;2022-11-11T12:47:00;102406.78;;;18.56;40.09
12213;BME280;6169;44.158;22.788;2022-11-11T12:52:18;102415.00;;;18.68;40.41
12213;BME280;6169;44.158;22.788;2022-11-11T12:57:31;102371.81;;;18.28;40.61
12213;BME280;6169;44.158;22.788;2022-11-11T13:02:57;102431.44;;;19.03;40.17
12213;BME280;6169;44.158;22.788;2022-11-11T13:14:02;102413.59;;;19.85;38.36
12213;BME280;6169;44.158;22.788;2022-11-11T13:19:16;102418.19;;;18.77;40.11
12213;BME280;6169;44.158;22.788;2022-11-11T13:24:22;102417.25;;;18.71;40.42
12213;BME280;6169;44.158;22.788;2022-11-11T13:34:56;102436.16;;;19.08;39.38
12213;BME280;6169;44.158;22.788;2022-11-11T13:40:02;102444.03;;;19.16;39.50
12213;BME280;6169;44.158;22.788;2022-11-11T13:45:20;102448.03;;;19.37;38.89
12213;BME280;6169;44.158;22.788;2022-11-11T13:50:27;102442.06;;;19.00;39.36
12213;BME280;6169;44.158;22.788;2022-11-11T13:55:35;102444.81;;;18.88;39.13
12213;BME280;6169;44.158;22.788;2022-11-11T14:00:40;102455.66;;;18.54;40.33
12213;BME280;6169;44.158;22.788;2022-11-11T14:05:42;102454.00;;;18.53;40.50
12213;BME280;6169;44.158;22.788;2022-11-11T14:10:53;102465.50;;;18.27;40.72
12213;BME280;6169;44.158;22.788;2022-11-11T14:15:58;102468.69;;;18.12;41.20
12213;BME280;6169;44.158;22.788;2022-11-11T14:21:00;102446.81;;;18.52;40.24
12213;BME280;6169;44.158;22.788;2022-11-11T14:26:23;102468.84;;;18.29;40.99
12213;BME280;6169;44.158;22.788;2022-11-11T14:37:19;102480.50;;;18.01;41.48
12213;BME280;6169;44.158;22.788;2022-11-11T14:42:43;102490.03;;;17.86;41.84
12213;BME280;6169;44.158;22.788;2022-11-11T14:47:47;102485.69;;;18.32;40.98
12213;BME280;6169;44.158;22.788;2022-11-11T14:52:51;102483.88;;;18.14;41.12
12213;BME280;6169;44.158;22.788;2022-11-11T14:57:57;102494.88;;;18.38;40.99
12213;BME280;6169;44.158;22.788;2022-11-11T15:03:07;102513.88;;;18.63;40.34
12213;BME280;6169;44.158;22.788;2022-11-11T15:08:16;102535.31;;;18.73;40.04
12213;BME280;6169;44.158;22.788;2022-11-11T15:13:51;102549.16;;;18.66;40.51
12213;BME280;6169;44.158;22.788;2022-11-11T15:19:12;102567.22;;;18.62;40.45
12213;BME280;6169;44.158;22.788;2022-11-11T15:24:29;102571.06;;;18.61;40.37
12213;BME280;6169;44.158;22.788;2022-11-11T15:29:56;102567.19;;;17.85;41.57
12213;BME280;6169;44.158;22.788;2022-11-11T15:35:18;102585.53;;;17.73;41.95
12213;BME280;6169;44.158;22.788;2022-11-11T15:40:26;102591.72;;;17.98;41.94
12213;BME280;6169;44.158;22.788;2022-11-11T15:45:33;102602.91;;;17.18;43.68
12213;BME280;6169;44.158;22.788;2022-11-11T15:50:37;102613.25;;;17.34;43.45
12213;BME280;6169;44.158;22.788;2022-11-11T15:55:39;102604.66;;;17.49;43.29
12213;BME280;6169;44.158;22.788;2022-11-11T16:00:42;102613.56;;;16.89;44.39
12213;BME280;6169;44.158;22.788;2022-11-11T16:05:47;102611.81;;;17.32;43.56
12213;BME280;6169;44.158;22.788;2022-11-11T16:10:55;102615.78;;;17.36;43.33
12213;BME280;6169;44.158;22.788;2022-11-11T16:16:01;102620.81;;;17.20;43.51
12213;BME280;6169;44.158;22.788;2022-11-11T16:21:09;102624.84;;;16.74;44.22
12213;BME280;6169;44.158;22.788;2022-11-11T16:26:14;102630.75;;;16.96;43.82
12213;BME280;6169;44.158;22.788;2022-11-11T16:36:59;102627.81;;;17.16;44.34
12213;BME280;6169;44.158;22.788;2022-11-11T16:42:03;102635.97;;;16.61;47.84
12213;BME280;6169;44.158;22.788;2022-11-11T16:47:41;102638.63;;;17.11;47.48
12213;BME280;6169;44.158;22.788;2022-11-11T16:52:50;102649.50;;;16.99;48.05
12213;BME280;6169;44.158;22.788;2022-11-11T16:57:53;102647.47;;;17.13;47.90
12213;BME280;6169;44.158;22.788;2022-11-11T17:03:09;102655.78;;;17.07;47.91
12213;BME280;6169;44.158;22.788;2022-11-11T17:08:30;102670.53;;;16.87;48.43
12213;BME280;6169;44.158;22.788;2022-11-11T17:13:35;102678.94;;;16.92;48.14
12213;BME280;6169;44.158;22.788;2022-11-11T17:18:37;102683.00;;;16.83;49.09
12213;BME280;6169;44.158;22.788;2022-11-11T17:23:42;102679.88;;;16.79;49.32
12213;BME280;6169;44.158;22.788;2022-11-11T17:28:44;102673.28;;;16.62;49.98
12213;BME280;6169;44.158;22.788;2022-11-11T17:33:46;102666.88;;;16.68;50.19
12213;BME280;6169;44.158;22.788;2022-11-11T17:38:49;102660.13;;;16.39;52.02
12213;BME280;6169;44.158;22.788;2022-11-11T17:43:52;102671.22;;;16.51;50.59
12213;BME280;6169;44.158;22.788;2022-11-11T17:48:54;102676.19;;;16.67;50.27
12213;BME280;6169;44.158;22.788;2022-11-11T17:53:58;102683.25;;;16.81;49.95
12213;BME280;6169;44.158;22.788;2022-11-11T17:59:00;102680.34;;;16.45;51.28
12213;BME280;6169;44.158;22.788;2022-11-11T18:04:02;102689.84;;;16.04;53.16
12213;BME280;6169;44.158;22.788;2022-11-11T18:09:07;102685.00;;;16.06;52.44
12213;BME280;6169;44.158;22.788;2022-11-11T18:14:09;102680.50;;;16.18;52.55
12213;BME280;6169;44.158;22.788;2022-11-11T18:19:12;102674.81;;;16.13;52.59
12213;BME280;6169;44.158;22.788;2022-11-11T18:24:16;102683.75;;;16.02;52.69
12213;BME280;6169;44.158;22.788;2022-11-11T18:29:18;102692.28;;;15.74;52.88
12213;BME280;6169;44.158;22.788;2022-11-11T18:34:20;102686.19;;;15.65;53.22
12213;BME280;6169;44.158;22.788;2022-11-11T18:39:24;102687.25;;;15.64;53.02
12213;BME280;6169;44.158;22.788;2022-11-11T18:44:26;102701.81;;;15.51;53.36
12213;BME280;6169;44.158;22.788;2022-11-11T18:49:28;102691.66;;;15.78;53.94
12213;BME280;6169;44.158;22.788;2022-11-11T18:54:32;102691.94;;;15.50;53.33
12213;BME280;6169;44.158;22.788;2022-11-11T18:59:34;102705.03;;;15.35;53.79
12213;BME280;6169;44.158;22.788;2022-11-11T19:04:36;102713.81;;;15.50;54.49
12213;BME280;6169;44.158;22.788;2022-11-11T19:09:40;102702.00;;;15.56;53.91
12213;BME280;6169;44.158;22.788;2022-11-11T19:14:42;102706.03;;;15.47;54.40
12213;BME280;6169;44.158;22.788;2022-11-11T19:19:44;102703.06;;;15.68;52.83
12213;BME280;6169;44.158;22.788;2022-11-11T19:24:48;102714.25;;;15.47;53.38
12213;BME280;6169;44.158;22.788;2022-11-11T19:29:51;102710.91;;;15.38;54.07
12213;BME280;6169;44.158;22.788;2022-11-11T19:34:53;102712.84;;;15.18;54.43
12213;BME280;6169;44.158;22.788;2022-11-11T19:39:56;102717.59;;;15.56;53.15
12213;BME280;6169;44.158;22.788;2022-11-11T19:44:59;102723.16;;;15.29;54.29
12213;BME280;6169;44.158;22.788;2022-11-11T19:50:02;102729.22;;;15.44;53.96
12213;BME280;6169;44.158;22.788;2022-11-11T19:55:06;102714.25;;;15.47;54.10
12213;BME280;6169;44.158;22.788;2022-11-11T20:00:09;102713.78;;;15.70;53.33
12213;BME280;6169;44.158;22.788;2022-11-11T20:05:11;102723.72;;;15.71;53.38
12213;BME280;6169;44.158;22.788;2022-11-11T20:10:15;102733.22;;;15.35;55.71
12213;BME280;6169;44.158;22.788;2022-11-11T20:15:18;102721.84;;;15.38;55.74
12213;BME280;6169;44.158;22.788;2022-11-11T20:20:21;102712.97;;;15.63;54.74
12213;BME280;6169;44.158;22.788;2022-11-11T20:25:25;102735.28;;;15.66;55.26
12213;BME280;6169;44.158;22.788;2022-11-11T20:30:27;102743.69;;;15.65;55.08
12213;BME280;6169;44.158;22.788;2022-11-11T20:35:29;102734.84;;;15.76;55.35
12213;BME280;6169;44.158;22.788;2022-11-11T20:40:33;102740.31;;;15.83;54.77
12213;BME280;6169;44.158;22.788;2022-11-11T20:45:35;102728.69;;;15.87;54.18
12213;BME280;6169;44.158;22.788;2022-11-11T20:50:38;102724.50;;;15.65;55.66
12213;BME280;6169;44.158;22.788;2022-11-11T20:55:41;102712.94;;;15.76;55.42
12213;BME280;6169;44.158;22.788;2022-11-11T21:00:44;102706.22;;;15.59;55.78
12213;BME280;6169;44.158;22.788;2022-11-11T21:05:46;102715.19;;;15.99;55.03
12213;BME280;6169;44.158;22.788;2022-11-11T21:10:53;102714.31;;;15.99;53.06
12213;BME280;6169;44.158;22.788;2022-11-11T21:16:02;102721.28;;;15.95;53.14
12213;BME280;6169;44.158;22.788;2022-11-11T21:21:06;102721.28;;;15.95;53.63
12213;BME280;6169;44.158;22.788;2022-11-11T21:26:11;102712.84;;;16.03;52.90
12213;BME280;6169;44.158;22.788;2022-11-11T21:31:15;102713.13;;;15.88;53.79
12213;BME280;6169;44.158;22.788;2022-11-11T21:36:20;102715.59;;;16.34;51.19
12213;BME280;6169;44.158;22.788;2022-11-11T21:41:25;102719.97;;;16.10;52.81
12213;BME280;6169;44.158;22.788;2022-11-11T21:46:31;102706.97;;;15.92;53.19
12213;BME280;6169;44.158;22.788;2022-11-11T21:51:34;102695.06;;;15.54;54.67
12213;BME280;6169;44.158;22.788;2022-11-11T21:56:38;102701.53;;;15.79;52.93
12213;BME280;6169;44.158;22.788;2022-11-11T22:01:41;102713.75;;;15.83;52.95
12213;BME280;6169;44.158;22.788;2022-11-11T22:06:43;102711.91;;;16.15;51.76
12213;BME280;6169;44.158;22.788;2022-11-11T22:11:46;102716.66;;;15.95;52.67
12213;BME280;6169;44.158;22.788;2022-11-11T22:16:48;102696.53;;;16.14;51.50
12213;BME280;6169;44.158;22.788;2022-11-11T22:21:51;102691.38;;;15.93;52.90
12213;BME280;6169;44.158;22.788;2022-11-11T22:26:54;102706.44;;;15.51;53.42
12213;BME280;6169;44.158;22.788;2022-11-11T22:31:56;102723.31;;;15.47;55.25
12213;BME280;6169;44.158;22.788;2022-11-11T22:36:59;102733.16;;;15.75;53.61
12213;BME280;6169;44.158;22.788;2022-11-11T22:42:03;102729.41;;;15.49;53.97
12213;BME280;6169;44.158;22.788;2022-11-11T22:47:05;102725.25;;;15.27;55.20
12213;BME280;6169;44.158;22.788;2022-11-11T22:52:07;102714.81;;;15.82;53.57
12213;BME280;6169;44.158;22.788;2022-11-11T22:57:11;102708.81;;;15.99;53.15
12213;BME280;6169;44.158;22.788;2022-11-11T23:02:13;102699.44;;;15.81;52.56
12213;BME280;6169;44.158;22.788;2022-11-11T23:07:15;102692.28;;;15.80;53.54
12213;BME280;6169;44.158;22.788;2022-11-11T23:12:19;102693.53;;;15.84;53.37
12213;BME280;6169;44.158;22.788;2022-11-11T23:17:21;102701.97;;;15.83;52.53
12213;BME280;6169;44.158;22.788;2022-11-11T23:22:23;102678.25;;;16.08;51.62
12213;BME280;6169;44.158;22.788;2022-11-11T23:27:27;102679.72;;;15.53;53.16
12213;BME280;6169;44.158;22.788;2022-11-11T23:32:29;102691.78;;;15.97;51.51
12213;BME280;6169;44.158;22.788;2022-11-11T23:37:31;102687.78;;;15.92;51.56
12213;BME280;6169;44.158;22.788;2022-11-11T23:42:35;102691.50;;;15.60;52.43
12213;BME280;6169;44.158;22.788;2022-11-11T23:47:37;102680.94;;;15.63;52.74
12213;BME280;6169;44.158;22.788;2022-11-11T23:52:39;102668.41;;;15.36;52.93
12213;BME280;6169;44.158;22.788;2022-11-11T23:57:43;102675.53;;;15.43;53.54
